Time;durP1;ratioP1;P1;durP2;ratioP2;P2;SDS_P1;SDS_P2;PMS_P1;PMS_P2;Temp;Humidity;BMP_temperature;BMP_pressure;BME280_temperature;BME280_humidity;BME280_pressure;Samples;Min_cycle;Max_cycle;Signal;HPM_P1;HPM_P2
2022/10/09 00:09:31;;;;;;;1.05;1.00;;;;;;;12.54;67.39;101021.84;18302123;32;20103;-58
2022/10/09 00:19:35;;;;;;;1.17;1.00;;;;;;;12.37;67.80;101015.72;18302932;32;20112;-58
2022/10/09 00:29:39;;;;;;;1.00;1.00;;;;;;;12.25;67.88;101007.00;18301928;32;20128;-58
2022/10/09 00:39:43;;;;;;;0.47;0.47;;;;;;;12.29;67.62;101010.50;18300478;32;20712;-58
2022/10/09 00:49:47;;;;;;;0.88;0.88;;;;;;;12.13;68.44;100999.13;18308283;32;20094;-58
2022/10/09 00:59:52;;;;;;;0.50;0.50;;;;;;;12.23;67.77;100992.16;18308641;32;20101;-58
2022/10/09 01:09:58;;;;;;;1.37;0.95;;;;;;;12.16;67.95;100978.19;18308023;32;20588;-58
2022/10/09 01:20:23;;;;;;;1.12;1.12;;;;;;;12.07;68.55;100965.97;18293707;32;20097;-58
2022/10/09 01:30:28;;;;;;;0.85;0.85;;;;;;;12.23;68.17;100966.84;18307552;32;20108;-58
2022/10/09 01:40:32;;;;;;;0.50;0.50;;;;;;;12.12;68.33;100961.63;18307646;32;20430;-58
2022/10/09 01:50:40;;;;;;;0.50;0.50;;;;;;;12.16;68.44;100973.81;18307088;32;20478;-58
2022/10/09 02:00:47;;;;;;;0.75;0.73;;;;;;;12.25;67.89;100979.94;18306963;32;20108;-58
2022/10/09 02:10:55;;;;;;;0.40;0.40;;;;;;;11.98;68.67;100974.66;18307920;32;20093;-58
2022/10/09 02:21:04;;;;;;;0.80;0.80;;;;;;;11.99;68.43;100970.28;18306263;32;20108;-58
2022/10/09 02:31:13;;;;;;;0.90;0.68;;;;;;;11.98;68.41;100987.75;18306361;32;20103;-58
2022/10/09 02:41:17;;;;;;;1.05;1.05;;;;;;;12.00;68.23;100996.47;18306049;32;20131;-58
2022/10/09 02:51:21;;;;;;;1.40;1.30;;;;;;;11.94;68.14;100985.97;18306601;32;20101;-58
2022/10/09 03:01:25;;;;;;;9.18;1.80;;;;;;;11.85;68.15;101009.50;18305261;32;20094;-58
2022/10/09 03:11:29;;;;;;;1.05;0.90;;;;;;;11.94;68.03;101023.50;18305097;32;20097;-58
2022/10/09 03:21:32;;;;;;;1.02;1.02;;;;;;;11.62;69.30;101016.44;18304567;32;20442;-58
2022/10/09 03:31:37;;;;;;;0.57;0.57;;;;;;;11.84;68.93;101023.44;18304165;32;20097;-58
2022/10/09 03:41:55;;;;;;;0.77;0.77;;;;;;;11.88;69.27;101038.31;18304011;32;20098;-58
2022/10/09 03:52:00;;;;;;;0.68;0.68;;;;;;;11.95;69.14;101021.75;18303115;32;20452;-58
2022/10/09 04:02:03;;;;;;;0.73;0.73;;;;;;;11.97;69.31;101048.78;18303685;32;20105;-58
2022/10/09 04:12:07;;;;;;;0.50;0.50;;;;;;;11.46;71.85;101046.84;18302083;32;20089;-58
2022/10/09 04:22:10;;;;;;;0.65;0.65;;;;;;;11.93;70.90;101024.38;18307119;32;20116;-58
2022/10/09 04:32:15;;;;;;;0.65;0.65;;;;;;;12.09;71.14;101058.44;18335336;32;20448;-58
2022/10/09 04:42:18;;;;;;;1.73;1.62;;;;;;;12.16;71.00;101025.31;18372571;32;20120;-57
2022/10/09 04:52:23;;;;;;;0.60;0.55;;;;;;;12.66;69.60;101064.59;18372041;32;20112;-58
2022/10/09 05:02:26;;;;;;;0.30;0.30;;;;;;;12.74;69.19;101089.91;18371903;32;20133;-58
2022/10/09 05:12:30;;;;;;;0.70;0.70;;;;;;;12.67;69.44;101090.81;18371557;32;20093;-58
2022/10/09 05:22:33;;;;;;;1.08;0.82;;;;;;;12.68;69.83;101094.28;18371511;32;20185;-58
2022/10/09 05:32:38;;;;;;;2.47;2.05;;;;;;;12.68;69.29;101110.88;18370807;32;20093;-58
2022/10/09 05:42:41;;;;;;;0.70;0.70;;;;;;;12.49;69.83;101112.59;18275891;32;20112;-58
2022/10/09 05:52:45;;;;;;;0.40;0.40;;;;;;;12.84;69.59;101126.59;18295088;32;20119;-58
2022/10/09 06:02:49;;;;;;;2.37;0.60;;;;;;;13.05;69.84;101136.19;18306616;32;20097;-58
2022/10/09 06:12:54;;;;;;;0.50;0.50;;;;;;;13.39;69.85;101153.62;18306398;32;20430;-58
2022/10/09 06:22:57;;;;;;;0.55;0.55;;;;;;;14.02;68.76;101152.59;18286262;32;20093;-58
2022/10/09 06:33:02;;;;;;;0.35;0.35;;;;;;;14.28;68.33;101157.72;18242718;32;20124;-58
2022/10/09 06:43:05;;;;;;;0.40;0.40;;;;;;;14.75;68.62;101183.75;18247344;32;20094;-58
2022/10/09 06:53:10;;;;;;;0.20;0.20;;;;;;;15.44;69.85;101180.53;18241950;32;20443;-58
2022/10/09 07:03:14;;;;;;;0.73;0.73;;;;;;;18.25;65.22;101186.75;18241958;32;20121;-58
2022/10/09 07:13:18;;;;;;;0.20;0.20;;;;;;;20.71;57.69;101185.56;18242554;32;20125;-58
2022/10/09 07:23:21;;;;;;;0.45;0.43;;;;;;;21.48;53.51;101181.25;18241314;32;20098;-58
2022/10/09 07:33:26;;;;;;;0.40;0.40;;;;;;;21.44;52.94;101195.59;18241778;32;20395;-58
2022/10/09 07:43:29;;;;;;;0.45;0.22;;;;;;;21.42;53.01;101192.97;18253774;32;20094;-58
2022/10/09 07:53:34;;;;;;;0.30;0.30;;;;;;;21.12;51.57;101195.78;18240627;32;20094;-58
2022/10/09 08:03:38;;;;;;;0.10;0.10;;;;;;;20.72;49.77;101212.97;18245276;32;20472;-58
2022/10/09 08:13:43;;;;;;;0.10;0.10;;;;;;;21.12;49.95;101221.47;18263220;32;20094;-58
2022/10/09 08:23:46;;;;;;;0.10;0.10;;;;;;;21.17;49.22;101220.41;18241054;32;20715;-58
2022/10/09 08:33:53;;;;;;;0.85;0.43;;;;;;;21.33;48.02;101225.16;18237610;32;20102;-58
2022/10/09 08:44:01;;;;;;;0.20;0.20;;;;;;;21.42;47.73;101227.50;18237350;32;20111;-58
2022/10/09 08:54:13;;;;;;;0.20;0.20;;;;;;;21.70;45.34;101237.19;18236886;32;20110;-58
2022/10/09 09:04:27;;;;;;;0.10;0.10;;;;;;;21.83;43.93;101244.75;18239185;32;20120;-58
2022/10/09 09:14:43;;;;;;;0.00;0.00;;;;;;;22.20;43.83;101266.44;18292732;32;20093;-58
2022/10/09 09:24:49;;;;;;;0.10;0.10;;;;;;;22.54;43.31;101267.84;18306497;32;20101;-58
2022/10/09 09:35:01;;;;;;;0.10;0.10;;;;;;;21.75;45.26;101271.56;18254887;32;20105;-58
2022/10/09 09:45:07;;;;;;;0.10;0.10;;;;;;;22.53;43.78;101276.75;18243593;32;20125;-58
2022/10/09 09:55:23;;;;;;;0.20;0.20;;;;;;;22.39;43.91;101275.44;18238812;32;20137;-58
2022/10/09 10:05:27;;;;;;;0.95;0.57;;;;;;;22.34;44.65;101280.09;18238581;32;20116;-58
2022/10/09 10:15:33;;;;;;;0.62;0.15;;;;;;;22.49;43.97;101275.09;18242117;32;20079;-58
2022/10/09 10:25:36;;;;;;;0.10;0.10;;;;;;;22.45;45.10;101287.66;18242761;32;20101;-58
2022/10/09 10:35:42;;;;;;;0.98;0.35;;;;;;;21.92;46.35;101281.63;18243584;32;20101;-58
2022/10/09 10:45:53;;;;;;;0.08;0.08;;;;;;;23.36;43.64;101275.22;18242579;32;20113;-58
2022/10/09 10:55:59;;;;;;;0.90;0.47;;;;;;;23.02;42.67;101281.06;18228135;32;20101;-58
2022/10/09 11:06:14;;;;;;;0.20;0.10;;;;;;;22.35;40.04;101279.16;18236759;32;159300;-58
2022/10/09 11:16:31;;;;;;;0.25;0.15;;;;;;;22.46;41.88;101281.41;18241644;32;20168;-58
2022/10/09 11:26:44;;;;;;;0.20;0.20;;;;;;;22.59;41.92;101266.75;18280306;32;20098;-59
2022/10/09 11:36:49;;;;;;;0.40;0.40;;;;;;;21.92;44.82;101265.66;18305094;32;20445;-58
2022/10/09 11:46:56;;;;;;;0.10;0.10;;;;;;;22.47;43.68;101268.97;18303278;32;20374;-59
2022/10/09 11:57:05;;;;;;;0.10;0.10;;;;;;;22.93;43.37;101240.56;18282086;32;20098;-58
2022/10/09 12:07:11;;;;;;;0.20;0.20;;;;;;;22.79;41.95;101250.91;18303585;32;20097;-58
2022/10/09 12:17:17;;;;;;;0.10;0.10;;;;;;;22.51;43.18;101236.91;18302093;32;20140;-58
2022/10/09 12:27:24;;;;;;;0.25;0.25;;;;;;;22.52;41.22;101235.09;18301611;32;20081;-58
2022/10/09 12:37:34;;;;;;;0.10;0.10;;;;;;;22.78;41.21;101233.19;18302287;32;20112;-58
2022/10/09 12:47:37;;;;;;;0.10;0.10;;;;;;;21.87;41.29;101236.59;18309076;32;20155;-58
2022/10/09 12:57:42;;;;;;;0.10;0.10;;;;;;;22.92;41.29;101220.22;18290593;32;20113;-58
2022/10/09 13:07:51;;;;;;;0.15;0.10;;;;;;;22.71;39.96;101214.81;18269875;32;20097;-58
2022/10/09 13:17:55;;;;;;;0.20;0.20;;;;;;;22.72;40.24;101202.38;18244933;32;20710;-59
2022/10/09 13:27:59;;;;;;;0.57;0.28;;;;;;;22.58;40.39;101192.28;18254454;32;20127;-59
2022/10/09 13:38:03;;;;;;;0.00;0.00;;;;;;;22.65;40.95;101188.47;18294030;32;20102;-59
2022/10/09 13:48:06;;;;;;;1.52;0.37;;;;;;;22.96;42.57;101184.53;18306676;32;20466;-59
2022/10/09 13:58:11;;;;;;;0.20;0.20;;;;;;;23.25;41.26;101173.59;18306799;32;20161;-58
2022/10/09 14:08:14;;;;;;;0.10;0.10;;;;;;;23.13;40.87;101172.31;18302069;32;20116;-59
2022/10/09 14:18:20;;;;;;;0.10;0.10;;;;;;;23.11;40.69;101166.19;18275836;32;20171;-59
2022/10/09 14:28:28;;;;;;;0.00;0.00;;;;;;;23.18;42.65;101172.97;18257635;32;20109;-59
2022/10/09 14:38:35;;;;;;;0.30;0.30;;;;;;;22.89;40.58;101174.22;18271725;32;20101;-59
2022/10/09 14:48:39;;;;;;;0.40;0.40;;;;;;;22.57;41.36;101172.81;18259964;32;20214;-58
2022/10/09 14:58:44;;;;;;;0.10;0.10;;;;;;;22.48;42.13;101175.81;18240380;32;20117;-58
2022/10/09 15:08:47;;;;;;;0.43;0.43;;;;;;;22.49;42.87;101172.25;18242298;32;20504;-58
2022/10/09 15:18:55;;;;;;;0.15;0.15;;;;;;;22.40;43.65;101178.75;18227797;32;20155;-58
2022/10/09 15:28:58;;;;;;;0.10;0.10;;;;;;;22.22;45.12;101187.47;18272805;32;20187;-58
2022/10/09 15:39:05;;;;;;;0.10;0.10;;;;;;;21.98;45.76;101192.81;18303999;32;20093;-58
2022/10/09 15:49:09;;;;;;;0.60;0.20;;;;;;;21.71;46.79;101203.53;18252540;32;20156;-59
2022/10/09 15:59:15;;;;;;;0.22;0.22;;;;;;;21.37;47.11;101210.00;18282920;32;20093;-58
2022/10/09 16:09:18;;;;;;;0.10;0.10;;;;;;;20.52;47.87;101211.84;18303473;32;20097;-58
2022/10/09 16:19:23;;;;;;;0.25;0.20;;;;;;;20.61;47.02;101218.62;18261309;32;20165;-58
2022/10/09 16:29:26;;;;;;;0.10;0.10;;;;;;;20.59;47.55;101231.94;18290860;32;20098;-58
2022/10/09 16:39:31;;;;;;;0.08;0.08;;;;;;;20.31;46.90;101243.41;18280120;32;20149;-59
2022/10/09 16:49:34;;;;;;;1.02;0.52;;;;;;;20.02;48.32;101255.72;18277595;32;20103;-59
2022/10/09 16:59:40;;;;;;;0.30;0.30;;;;;;;19.49;48.08;101267.66;18287388;32;20450;-60
2022/10/09 17:09:43;;;;;;;0.20;0.20;;;;;;;19.29;49.86;101275.25;18271670;32;20116;-58
2022/10/09 17:19:48;;;;;;;0.30;0.30;;;;;;;18.79;51.35;101298.41;18271556;32;20117;-58
2022/10/09 17:30:01;;;;;;;0.40;0.40;;;;;;;18.28;53.44;101307.41;18272777;32;20137;-58
2022/10/09 17:40:06;;;;;;;0.30;0.30;;;;;;;17.74;54.63;101311.91;18269425;32;20141;-58
2022/10/09 17:50:10;;;;;;;0.30;0.30;;;;;;;17.64;54.72;101315.56;18283128;32;20090;-58
2022/10/09 18:00:16;;;;;;;0.80;0.60;;;;;;;17.60;53.85;101320.06;18244561;32;20090;-58
2022/10/09 18:10:23;;;;;;;0.30;0.30;;;;;;;17.69;54.28;101324.31;18227728;32;20792;-59
2022/10/09 18:20:29;;;;;;;0.20;0.20;;;;;;;17.04;57.46;101328.84;18232288;32;20106;-58
2022/10/09 18:30:32;;;;;;;0.40;0.40;;;;;;;17.49;55.59;101338.72;18274744;32;20086;-61
2022/10/09 18:40:39;;;;;;;0.30;0.30;;;;;;;17.64;55.27;101350.78;18287617;32;20171;-58
2022/10/09 18:50:48;;;;;;;0.40;0.40;;;;;;;16.94;57.66;101348.31;18286491;32;20097;-59
2022/10/09 19:00:52;;;;;;;0.80;0.73;;;;;;;17.38;54.99;101352.06;18295529;32;20089;-58
2022/10/09 19:10:55;;;;;;;0.40;0.40;;;;;;;17.24;55.43;101368.09;18289437;32;20102;-59
2022/10/09 19:21:00;;;;;;;0.30;0.30;;;;;;;17.17;54.00;101369.97;18283041;32;20136;-59
2022/10/09 19:31:05;;;;;;;0.30;0.30;;;;;;;16.87;53.17;101381.75;18244444;32;20129;-59
2022/10/09 19:41:11;;;;;;;0.22;0.22;;;;;;;16.71;52.12;101399.53;18264293;32;20128;-58
2022/10/09 19:51:16;;;;;;;0.30;0.30;;;;;;;16.88;50.51;101415.16;18251835;32;20113;-58
2022/10/09 20:01:39;;;;;;;0.30;0.30;;;;;;;16.25;53.84;101432.53;18270616;32;20124;-59
2022/10/09 20:11:48;;;;;;;0.20;0.20;;;;;;;16.72;50.88;101440.84;18285203;32;20115;-58
2022/10/09 20:21:52;;;;;;;0.20;0.20;;;;;;;16.53;52.28;101448.09;18258376;32;20141;-57
2022/10/09 20:31:55;;;;;;;0.28;0.28;;;;;;;16.58;52.33;101444.50;18257041;32;20160;-56
2022/10/09 20:42:00;;;;;;;1.17;0.95;;;;;;;16.19;53.25;101458.03;18276718;32;20124;-57
2022/10/09 20:52:03;;;;;;;0.20;0.20;;;;;;;15.93;54.19;101461.78;18295329;32;20085;-57
2022/10/09 21:02:08;;;;;;;0.40;0.40;;;;;;;15.22;55.13;101476.22;18275013;32;20120;-57
2022/10/09 21:12:11;;;;;;;0.30;0.30;;;;;;;15.41;54.40;101468.19;18307997;32;20094;-56
2022/10/09 21:22:16;;;;;;;1.30;1.30;;;;;;;14.89;55.29;101479.81;18307919;32;20185;-57
2022/10/09 21:32:19;;;;;;;0.30;0.30;;;;;;;14.98;55.46;101471.88;18294594;32;20375;-56
2022/10/09 21:42:23;;;;;;;0.20;0.20;;;;;;;14.70;55.19;101482.44;18307065;32;20089;-57
2022/10/09 21:52:26;;;;;;;0.30;0.30;;;;;;;14.77;51.62;101478.97;18306407;32;20111;-56
2022/10/09 22:02:31;;;;;;;0.40;0.40;;;;;;;14.68;54.93;101478.94;18306976;32;20102;-57
2022/10/09 22:12:34;;;;;;;0.20;0.20;;;;;;;14.17;56.14;101490.38;18306207;32;20119;-57
2022/10/09 22:22:39;;;;;;;0.40;0.40;;;;;;;14.19;57.33;101483.38;18306067;32;20097;-57
2022/10/09 22:32:42;;;;;;;0.35;0.35;;;;;;;14.18;57.28;101472.88;18331833;32;20426;-56
2022/10/09 22:42:46;;;;;;;0.98;0.98;;;;;;;14.11;57.75;101486.00;18320480;32;20159;-56
2022/10/09 22:52:50;;;;;;;0.35;0.35;;;;;;;14.03;58.01;101487.75;18305476;32;20723;-57
2022/10/09 23:02:55;;;;;;;0.30;0.30;;;;;;;13.92;57.25;101490.34;18304911;32;20484;-57
2022/10/09 23:12:58;;;;;;;0.30;0.30;;;;;;;13.71;56.95;101491.22;18304855;32;20202;-57
2022/10/09 23:23:03;;;;;;;0.30;0.30;;;;;;;13.60;58.40;101493.81;18303904;32;20093;-57
2022/10/09 23:33:06;;;;;;;0.37;0.37;;;;;;;13.54;57.51;101491.16;18304353;32;20113;-56
2022/10/09 23:43:10;;;;;;;0.40;0.40;;;;;;;13.39;57.52;101494.56;18303880;32;20097;-56
2022/10/09 23:53:13;;;;;;;0.37;0.37;;;;;;;12.87;58.78;101502.19;18303496;32;20237;-56
